• Join FlightAware (Why Join?)
  • Login
  • US Flag 
11:49AM EST


 

Airport Tracker/Info


-or-


 

Live Flight TrackerFlight Track Log ✈ N518PC ✈ 10-May-2013 ✈ KFCM - C29

Flight Track Log - Related Links

Times and Time Zones

All times are in EDT time to prevent confusion due to time zone crossing. See the N518PC flight status page for this flight to view local times or setup timezone preferences in your user account.

Time Position Orientation Groundspeed Altitude Reporting Facility
EDT Latitude Longitude Course Direction KTS MPH feet Rate Location/Type
05:56PM 44.7667 -93.4167 160° South 144 166 3,000  Level Minneapolis TRACON
05:57PM 44.7356 -93.3989 158° South 165 190 3,000  Level Minneapolis Center
05:58PM 44.6853 -93.3569 149° Southeast 180 207 3,100 -60 Climbing Minneapolis Center
05:59PM 44.6608 -93.2947 119° Southeast 185 213 2,900  Descending Minneapolis Center
06:00PM 44.6358 -93.2342 120° Southeast 182 209 3,100  Climbing Minneapolis Center
06:01PM 44.6114 -93.1731 119° Southeast 183 211 3,000 -60 Descending Minneapolis Center
06:02PM 44.5819 -93.0994 119° Southeast 183 211 3,000 -60 Level Minneapolis Center
06:03PM 44.5564 -93.0394 121° Southeast 181 208 2,900 540 Descending Minneapolis Center
06:04PM 44.5353 -92.9858 119° Southeast 160 184 4,200 1,200 Climbing Minneapolis Center
06:05PM 44.5153 -92.9378 120° Southeast 146 168 5,400 1,020 Climbing Minneapolis Center
06:06PM 44.4942 -92.8881 121° Southeast 148 170 6,400 660 Climbing Minneapolis Center
06:07PM 44.4728 -92.8333 119° Southeast 162 186 6,800 240 Climbing Minneapolis Center
06:08PM 44.4431 -92.7550 118° Southeast 188 216 7,000  Climbing Minneapolis Center
06:09PM 44.4172 -92.6881 118° Southeast 197 227 6,900 -60 Descending Minneapolis Center
06:10PM 44.3911 -92.6225 119° Southeast 196 226 6,900  Level Minneapolis Center
06:11PM 44.3656 -92.5564 118° Southeast 194 223 6,900  Level Minneapolis Center
06:12PM 44.3358 -92.4797 118° Southeast 198 228 7,000  Climbing Minneapolis Center
06:13PM 44.3119 -92.4136 117° Southeast 193 222 7,000  Level Minneapolis Center
06:14PM 44.2847 -92.3425 118° Southeast 193 222 7,000  Level Minneapolis Center
06:15PM 44.2606 -92.2764 117° Southeast 196 226 7,000  Level Minneapolis Center
06:16PM 44.2331 -92.2044 118° Southeast 197 227 7,000 420 Level Minneapolis Center
06:17PM 44.2103 -92.1422 117° Southeast 182 209 7,900 900 Climbing Minneapolis Center
06:18PM 44.1872 -92.0847 119° Southeast 160 184 8,900 480 Climbing Minneapolis Center
06:19PM 44.1597 -92.0239 122° Southeast 188 216 9,000  Climbing Minneapolis Center
06:20PM 44.1300 -91.9528 120° Southeast 199 229 9,000  Level Minneapolis Center
06:21PM 44.1025 -91.8853 120° Southeast 203 234 9,000  Level Minneapolis Center
06:23PM 44.0736 -91.8106 118° Southeast 203 234 9,000  Level Minneapolis Center
06:24PM 44.0469 -91.7417 118° Southeast 205 236 9,000  Level Minneapolis Center
06:25PM 44.0156 -91.6700 121° Southeast 202 232 9,000  Level Minneapolis Center
06:26PM 43.9825 -91.5972 122° Southeast 209 241 9,000  Level Minneapolis Center
06:27PM 43.9497 -91.5297 124° Southeast 205 236 9,000 -60 Level Minneapolis Center
06:28PM 43.9194 -91.4650 123° Southeast 205 236 8,900 -60 Descending Minneapolis Center
06:29PM 43.8858 -91.3958 124° Southeast 206 237 8,900  Level Minneapolis Center
06:30PM 43.8558 -91.3269 121° Southeast 199 229 9,000  Climbing Minneapolis Center
06:31PM 43.8239 -91.2550 122° Southeast 211 243 8,900 -60 Descending Minneapolis Center
06:32PM 43.7936 -91.1825 120° Southeast 209 241 8,900  Level Minneapolis Center
06:33PM 43.7650 -91.1125 119° Southeast 202 232 9,000  Climbing Minneapolis Center
06:34PM 43.7361 -91.0436 120° Southeast 200 230 9,000  Level Minneapolis Center
06:35PM 43.7081 -90.9792 121° Southeast 202 232 9,000 -60 Level Minneapolis Center
06:36PM 43.6794 -90.9100 120° Southeast 200 230 8,900 -120 Descending Minneapolis Center
06:37PM 43.6503 -90.8397 120° Southeast 203 234 8,800  Descending Minneapolis Center
06:38PM 43.6208 -90.7717 121° Southeast 197 227 9,000 60 Climbing Minneapolis Center
06:39PM 43.5908 -90.7061 122° Southeast 195 224 9,000  Level Minneapolis Center
06:40PM 43.5631 -90.6356 118° Southeast 200 230 9,000  Level Minneapolis Center
06:41PM 43.5356 -90.5664 119° Southeast 197 227 9,000  Level Minneapolis Center
06:42PM 43.5086 -90.4958 118° Southeast 199 229 9,000  Level Minneapolis Center
06:43PM 43.4836 -90.4300 118° Southeast 202 232 9,000  Level Minneapolis Center
06:44PM 43.4539 -90.3614 121° Southeast 200 230 9,100  Climbing Minneapolis Center
06:45PM 43.4253 -90.2917 119° Southeast 201 231 9,000 -60 Descending Minneapolis Center
06:46PM 43.3944 -90.2225 122° Southeast 204 235 9,000 -60 Level Minneapolis Center
06:47PM 43.3592 -90.1592 127° Southeast 201 231 8,900 60 Descending Minneapolis Center
06:48PM 43.3425 -90.1308 129° Southeast 202 232 9,100 -240 Climbing Chicago Center
06:49PM 43.3075 -90.0700 128° Southeast 202 232 8,600 -720 Descending Chicago Center
06:50PM 43.2711 -90.0047 127° Southeast 210 242 7,700 -1,020 Descending Chicago Center
06:51PM 43.2328 -89.9389 129° Southeast 217 250 6,500 -1,260 Descending Chicago Center
06:52PM 43.1864 -89.8650 131° Southeast 219 252 5,100 -1,200 Descending Chicago Center
06:53PM 43.1497 -89.8036 129° Southeast 214 246 4,100 -1,020 Descending Chicago Center
06:54PM 43.1375 -89.7308 103° East 204 235 3,100 -660 Descending Chicago Center
06:55PM 43.1297 -89.6514 98° East 200 230 2,800 -300 Descending Chicago Center